createdAt,value
2024-05-09T00:01:58.131Z,19.56
2024-05-09T00:05:00.658Z,19.50
2024-05-09T00:08:03.503Z,19.50
2024-05-09T00:11:06.028Z,19.50
2024-05-09T00:14:08.643Z,19.50
2024-05-09T00:17:11.236Z,19.50
2024-05-09T00:20:20.200Z,19.50
2024-05-09T00:23:26.835Z,19.50
2024-05-09T00:26:29.399Z,19.44
2024-05-09T00:29:32.342Z,19.44
2024-05-09T00:32:34.996Z,19.44
2024-05-09T00:35:37.731Z,19.44
2024-05-09T00:38:40.475Z,19.38
2024-05-09T00:41:42.918Z,19.38
2024-05-09T00:44:45.442Z,19.38
2024-05-09T00:47:48.145Z,19.38
2024-05-09T00:50:52.047Z,19.38
2024-05-09T00:53:55.243Z,19.38
2024-05-09T00:56:57.937Z,19.31
2024-05-09T01:00:00.559Z,19.38
2024-05-09T01:03:03.287Z,19.31
2024-05-09T01:06:05.928Z,19.31
2024-05-09T01:09:08.377Z,19.31
2024-05-09T01:12:10.983Z,19.31
2024-05-09T01:15:13.619Z,19.31
2024-05-09T01:18:16.611Z,19.31
2024-05-09T01:21:19.393Z,19.31
2024-05-09T01:24:22.063Z,19.31
2024-05-09T01:27:25.007Z,19.31
2024-05-09T01:30:33.989Z,19.31
2024-05-09T01:33:38.962Z,19.25
2024-05-09T01:36:41.513Z,19.25
2024-05-09T01:39:44.035Z,19.25
2024-05-09T01:42:46.531Z,19.25
2024-05-09T01:45:48.915Z,19.25
2024-05-09T01:48:51.574Z,19.25
2024-05-09T01:51:53.980Z,19.25
2024-05-09T01:54:56.338Z,19.25
2024-05-09T01:57:58.730Z,19.25
2024-05-09T02:01:01.439Z,19.19
2024-05-09T02:04:04.281Z,19.19
2024-05-09T02:07:06.804Z,19.19
2024-05-09T02:10:16.190Z,19.19
2024-05-09T02:13:22.670Z,19.19
2024-05-09T02:16:25.070Z,19.19
2024-05-09T02:19:27.705Z,19.19
2024-05-09T02:22:30.424Z,19.19
2024-05-09T02:25:33.319Z,19.13
2024-05-09T02:28:35.826Z,19.19
2024-05-09T02:31:38.178Z,19.13
2024-05-09T02:34:40.557Z,19.13
2024-05-09T02:37:43.014Z,19.13
2024-05-09T02:40:45.576Z,19.13
2024-05-09T02:43:48.057Z,19.13
2024-05-09T02:46:50.487Z,19.13
2024-05-09T02:49:52.884Z,19.13
2024-05-09T02:52:55.235Z,19.13
2024-05-09T02:55:57.555Z,19.06
2024-05-09T02:59:00.028Z,19.13
2024-05-09T03:02:02.603Z,19.06
2024-05-09T03:05:05.508Z,19.06
2024-05-09T03:08:08.423Z,19.06
2024-05-09T03:11:19.818Z,19.06
2024-05-09T03:14:22.795Z,19.06
2024-05-09T03:17:25.420Z,19.06
2024-05-09T03:20:33.410Z,19.00
2024-05-09T03:23:44.320Z,19.00
2024-05-09T03:26:47.082Z,19.00
2024-05-09T03:29:49.472Z,19.00
2024-05-09T03:32:51.990Z,19.00
2024-05-09T03:35:54.441Z,19.00
2024-05-09T03:38:56.783Z,19.00
2024-05-09T03:41:59.362Z,18.94
2024-05-09T03:45:01.807Z,18.94
2024-05-09T03:48:04.525Z,18.94
2024-05-09T03:51:07.695Z,18.94
2024-05-09T03:54:10.312Z,18.94
2024-05-09T03:57:12.679Z,18.94
2024-05-09T04:00:22.070Z,18.88
2024-05-09T04:03:29.099Z,18.94
2024-05-09T04:06:31.681Z,18.94
2024-05-09T04:09:34.090Z,18.94
2024-05-09T04:12:36.498Z,18.88
2024-05-09T04:15:39.442Z,18.88
2024-05-09T04:18:41.973Z,18.88
2024-05-09T04:21:44.413Z,18.88
2024-05-09T04:24:47.407Z,18.88
2024-05-09T04:27:49.800Z,18.88
2024-05-09T04:30:52.096Z,18.88
2024-05-09T04:33:54.575Z,18.81
2024-05-09T04:36:57.102Z,18.81
2024-05-09T04:39:59.661Z,18.88
2024-05-09T04:43:02.097Z,18.81
2024-05-09T04:46:04.580Z,18.88
2024-05-09T04:49:07.015Z,18.88
2024-05-09T04:52:09.421Z,18.81
2024-05-09T04:55:11.751Z,18.81
2024-05-09T04:58:14.352Z,18.81
2024-05-09T05:01:19.126Z,18.81
2024-05-09T05:04:21.751Z,18.88
2024-05-09T05:07:24.333Z,18.88
2024-05-09T05:10:33.975Z,18.88
2024-05-09T05:13:41.696Z,18.81
2024-05-09T05:16:44.525Z,18.88
2024-05-09T05:19:47.143Z,18.88
2024-05-09T05:22:49.646Z,18.81
2024-05-09T05:25:53.431Z,18.88
2024-05-09T05:28:56.286Z,18.81
2024-05-09T05:31:58.909Z,18.81
2024-05-09T05:35:01.510Z,18.88
2024-05-09T05:38:07.105Z,18.88
2024-05-09T05:41:10.374Z,18.88
2024-05-09T05:44:14.370Z,18.88
2024-05-09T05:47:16.970Z,18.88
2024-05-09T05:50:27.359Z,18.94
2024-05-09T05:53:35.481Z,18.94
2024-05-09T05:56:38.078Z,18.94
2024-05-09T05:59:40.934Z,18.94
2024-05-09T06:02:43.545Z,18.94
2024-05-09T06:05:46.592Z,19.00
2024-05-09T06:08:49.216Z,19.00
2024-05-09T06:11:52.162Z,19.00
2024-05-09T06:14:54.819Z,19.00
2024-05-09T06:17:57.237Z,19.00
2024-05-09T06:20:59.717Z,19.06
2024-05-09T06:24:06.539Z,19.06
2024-05-09T06:27:09.726Z,19.06
2024-05-09T06:30:24.862Z,19.13
2024-05-09T06:33:31.960Z,19.19
2024-05-09T06:36:34.506Z,19.19
2024-05-09T06:39:36.971Z,19.25
2024-05-09T06:42:39.288Z,19.31
2024-05-09T06:45:41.849Z,19.31
2024-05-09T06:48:44.612Z,19.31
2024-05-09T06:51:47.196Z,19.38
2024-05-09T06:54:49.633Z,19.31
2024-05-09T06:57:52.139Z,19.38
2024-05-09T07:00:54.469Z,19.44
2024-05-09T07:03:56.901Z,19.38
2024-05-09T07:06:59.238Z,19.50
2024-05-09T07:10:01.761Z,19.50
2024-05-09T07:13:11.064Z,19.63
2024-05-09T07:16:13.461Z,19.69
2024-05-09T07:19:16.152Z,19.75
2024-05-09T07:22:18.795Z,19.81
2024-05-09T07:25:21.214Z,19.81
2024-05-09T07:28:23.739Z,19.88
2024-05-09T07:31:28.169Z,19.81
2024-05-09T07:34:31.181Z,19.81
2024-05-09T07:37:33.578Z,19.81
2024-05-09T07:40:37.131Z,19.94
2024-05-09T07:43:39.694Z,20.00
2024-05-09T07:47:47.940Z,19.94
2024-05-09T07:53:37.288Z,20.13
2024-05-09T07:56:35.703Z,20.19
2024-05-09T07:59:39.021Z,20.19
2024-05-09T08:02:41.563Z,20.19
2024-05-09T08:05:44.142Z,20.25
2024-05-09T08:08:47.128Z,20.25
2024-05-09T08:11:52.861Z,20.31
2024-05-09T08:14:56.325Z,20.31
2024-05-09T08:17:59.474Z,20.31
2024-05-09T08:21:02.060Z,20.38
2024-05-09T08:24:04.679Z,20.44
2024-05-09T08:27:07.723Z,20.44
2024-05-09T08:30:18.604Z,20.38
2024-05-09T08:33:24.501Z,20.38
2024-05-09T08:36:29.499Z,20.38
2024-05-09T08:39:31.861Z,20.38
2024-05-09T08:42:36.315Z,20.44
2024-05-09T08:45:42.130Z,20.44
2024-05-09T08:48:48.038Z,20.44
2024-05-09T08:51:50.655Z,20.44
2024-05-09T08:54:54.852Z,20.50
2024-05-09T08:57:57.408Z,20.50
2024-05-09T09:01:00.325Z,20.44
2024-05-09T09:04:05.241Z,20.50
2024-05-09T09:07:07.786Z,20.56
2024-05-09T09:10:15.086Z,20.56
2024-05-09T09:13:20.401Z,20.63
2024-05-09T09:16:35.932Z,20.56
2024-05-09T09:19:40.258Z,20.69
2024-05-09T09:22:42.725Z,20.69
2024-05-09T09:25:45.239Z,20.63
2024-05-09T09:28:47.932Z,20.69
2024-05-09T09:32:04.179Z,20.69
2024-05-09T09:35:07.212Z,20.69
2024-05-09T09:38:11.158Z,20.75
2024-05-09T09:41:16.232Z,20.75
2024-05-09T09:44:19.906Z,20.75
2024-05-09T09:47:22.979Z,20.69
2024-05-09T09:50:33.749Z,20.69
2024-05-09T09:53:38.394Z,20.69
2024-05-09T09:56:41.539Z,20.69
2024-05-09T09:59:46.657Z,20.69
2024-05-09T10:02:49.117Z,20.63
2024-05-09T10:05:52.457Z,20.69
2024-05-09T10:08:55.111Z,20.69
2024-05-09T10:12:00.266Z,20.69
2024-05-09T10:15:09.689Z,20.69
2024-05-09T10:18:12.589Z,20.69
2024-05-09T10:21:18.497Z,20.63
2024-05-09T10:24:21.001Z,20.56
2024-05-09T10:27:30.707Z,20.56
2024-05-09T10:30:36.203Z,20.50
2024-05-09T10:33:45.570Z,20.56
2024-05-09T10:36:55.385Z,20.56
2024-05-09T10:39:58.859Z,20.56
2024-05-09T10:43:05.823Z,20.50
2024-05-09T10:46:10.177Z,20.56
2024-05-09T10:49:15.859Z,20.44
2024-05-09T10:52:22.194Z,20.50
2024-05-09T10:55:24.787Z,20.56
2024-05-09T10:58:28.411Z,20.56
2024-05-09T11:01:31.209Z,20.56
2024-05-09T11:04:34.484Z,20.56
2024-05-09T11:07:37.086Z,20.56
2024-05-09T11:10:39.999Z,20.63
2024-05-09T11:13:42.716Z,20.56
2024-05-09T11:16:45.174Z,20.63
2024-05-09T11:19:50.116Z,20.63
2024-05-09T11:22:52.728Z,20.63
2024-05-09T11:25:57.273Z,20.56
2024-05-09T11:28:59.862Z,20.63
2024-05-09T11:32:02.252Z,20.69
2024-05-09T11:35:04.956Z,20.56
2024-05-09T11:38:07.464Z,20.69
2024-05-09T11:41:16.360Z,20.63
2024-05-09T11:44:18.790Z,20.63
2024-05-09T11:47:21.660Z,20.69
2024-05-09T11:50:29.840Z,20.75
2024-05-09T11:53:35.611Z,20.81
2024-05-09T11:56:38.242Z,20.75
2024-05-09T11:59:40.739Z,20.88
2024-05-09T12:02:43.139Z,21.13
2024-05-09T12:05:45.838Z,21.31
2024-05-09T12:08:48.556Z,21.50
2024-05-09T12:11:50.989Z,21.38
2024-05-09T12:14:53.387Z,21.50
2024-05-09T12:17:58.173Z,21.56
2024-05-09T12:21:02.724Z,21.56
2024-05-09T12:24:05.221Z,21.31
2024-05-09T12:27:07.760Z,21.31
2024-05-09T12:30:14.186Z,21.50
2024-05-09T12:33:20.961Z,21.56
2024-05-09T12:36:23.466Z,21.81
2024-05-09T12:39:25.922Z,21.75
2024-05-09T12:42:29.891Z,21.75
2024-05-09T12:45:33.672Z,21.81
2024-05-09T12:48:36.518Z,21.94
2024-05-09T12:51:39.056Z,22.00
2024-05-09T12:54:41.465Z,21.94
2024-05-09T12:57:44.006Z,21.81
2024-05-09T13:00:47.397Z,22.00
2024-05-09T13:03:50.237Z,22.13
2024-05-09T13:06:53.096Z,21.94
2024-05-09T13:09:55.814Z,22.19
2024-05-09T13:12:58.214Z,22.19
2024-05-09T13:16:00.775Z,22.19
2024-05-09T13:19:03.173Z,22.13
2024-05-09T13:22:05.812Z,22.19
2024-05-09T13:25:08.344Z,22.19
2024-05-09T13:28:10.892Z,22.38
2024-05-09T13:31:13.500Z,22.44
2024-05-09T13:34:15.984Z,22.38
2024-05-09T13:37:18.877Z,22.50
2024-05-09T13:40:29.967Z,22.44
2024-05-09T13:43:36.536Z,22.44
2024-05-09T13:46:38.950Z,22.56
2024-05-09T13:49:41.360Z,22.50
2024-05-09T13:52:43.929Z,22.31
2024-05-09T13:55:46.631Z,22.38
2024-05-09T13:58:51.092Z,22.38
2024-05-09T14:01:53.576Z,22.56
2024-05-09T14:04:56.489Z,22.50
2024-05-09T14:07:59.291Z,22.44
2024-05-09T14:11:01.808Z,22.63
2024-05-09T14:14:04.296Z,22.75
2024-05-09T14:17:07.039Z,22.63
2024-05-09T14:20:13.977Z,22.75
2024-05-09T14:23:17.956Z,22.69
2024-05-09T14:26:20.501Z,22.88
2024-05-09T14:29:22.851Z,22.75
2024-05-09T14:32:25.310Z,22.81
2024-05-09T14:35:27.680Z,22.81
2024-05-09T14:38:30.368Z,23.00
2024-05-09T14:41:33.096Z,22.94
2024-05-09T14:44:35.533Z,22.81
2024-05-09T14:47:38.160Z,22.94
2024-05-09T14:50:41.201Z,23.00
2024-05-09T14:53:43.998Z,22.94
2024-05-09T14:56:46.512Z,23.00
2024-05-09T14:59:48.908Z,23.00
2024-05-09T15:02:51.306Z,22.88
2024-05-09T15:05:53.924Z,22.94
2024-05-09T15:08:57.409Z,23.00
2024-05-09T15:11:59.946Z,22.94
2024-05-09T15:15:02.335Z,23.00
2024-05-09T15:18:05.709Z,23.13
2024-05-09T15:21:08.439Z,22.94
2024-05-09T15:24:10.806Z,22.88
2024-05-09T15:27:13.536Z,22.94
2024-05-09T15:30:20.885Z,22.81
2024-05-09T15:33:27.992Z,23.06
2024-05-09T15:36:30.443Z,22.81
2024-05-09T15:39:32.960Z,22.75
2024-05-09T15:42:35.437Z,22.63
2024-05-09T15:45:37.910Z,22.50
2024-05-09T15:48:44.629Z,22.56
2024-05-09T15:51:48.481Z,22.56
2024-05-09T15:54:50.899Z,22.63
2024-05-09T15:57:53.453Z,22.63
2024-05-09T16:00:56.110Z,22.63
2024-05-09T16:03:58.804Z,22.69
2024-05-09T16:07:01.408Z,22.56
2024-05-09T16:10:06.540Z,22.56
2024-05-09T16:13:09.385Z,22.44
2024-05-09T16:16:12.072Z,22.38
2024-05-09T16:19:14.739Z,22.44
2024-05-09T16:22:17.526Z,22.44
2024-05-09T16:25:20.071Z,22.44
2024-05-09T16:28:24.704Z,22.44
2024-05-09T16:31:28.880Z,22.44
2024-05-09T16:34:31.566Z,22.44
2024-05-09T16:37:34.210Z,22.38
2024-05-09T16:40:40.161Z,22.38
2024-05-09T16:43:43.898Z,22.38
2024-05-09T16:46:46.400Z,22.31
2024-05-09T16:49:48.961Z,22.31
2024-05-09T16:52:51.375Z,22.19
2024-05-09T16:55:53.945Z,22.06
2024-05-09T16:58:56.477Z,22.06
2024-05-09T17:01:59.145Z,22.00
2024-05-09T17:05:01.955Z,21.94
2024-05-09T17:08:04.960Z,21.88
2024-05-09T17:11:07.581Z,21.88
2024-05-09T17:14:26.031Z,21.88
2024-05-09T17:17:30.269Z,21.81
2024-05-09T17:20:35.894Z,21.81
2024-05-09T17:23:40.178Z,21.75
2024-05-09T17:26:42.874Z,21.81
2024-05-09T17:29:45.470Z,21.69
2024-05-09T17:32:48.106Z,21.69
2024-05-09T17:35:51.344Z,21.63
2024-05-09T17:38:53.919Z,21.63
2024-05-09T17:41:56.425Z,21.63
2024-05-09T17:44:58.853Z,21.56
2024-05-09T17:48:03.803Z,21.50
2024-05-09T17:51:06.387Z,21.50
2024-05-09T17:54:08.650Z,21.44
2024-05-09T17:57:11.135Z,21.44
2024-05-09T18:00:17.452Z,21.44
2024-05-09T18:03:24.057Z,21.38
2024-05-09T18:06:26.586Z,21.31
2024-05-09T18:09:28.898Z,21.31
2024-05-09T18:12:31.741Z,21.19
2024-05-09T18:15:34.426Z,21.25
2024-05-09T18:18:37.162Z,21.19
2024-05-09T18:21:40.052Z,21.13
2024-05-09T18:24:42.575Z,21.13
2024-05-09T18:27:45.010Z,21.06
2024-05-09T18:30:47.584Z,21.00
2024-05-09T18:33:50.296Z,21.00
2024-05-09T18:36:52.988Z,20.94
2024-05-09T18:39:55.423Z,20.88
2024-05-09T18:42:57.876Z,20.88
2024-05-09T18:46:00.453Z,20.81
2024-05-09T18:49:02.921Z,20.81
2024-05-09T18:52:05.910Z,20.75
2024-05-09T18:55:08.487Z,20.69
2024-05-09T18:58:11.345Z,20.69
2024-05-09T19:01:13.844Z,20.69
2024-05-09T19:04:19.487Z,20.63
2024-05-09T19:07:22.211Z,20.56
2024-05-09T19:10:28.824Z,20.56
2024-05-09T19:13:35.874Z,20.50
2024-05-09T19:16:38.488Z,20.50
2024-05-09T19:19:40.899Z,20.50
2024-05-09T19:22:43.318Z,20.38
2024-05-09T19:25:45.965Z,20.31
2024-05-09T19:28:48.524Z,20.38
2024-05-09T19:31:51.081Z,20.25
2024-05-09T19:34:53.622Z,20.19
2024-05-09T19:37:56.164Z,20.19
2024-05-09T19:40:58.486Z,20.19
2024-05-09T19:44:00.878Z,20.13
2024-05-09T19:47:03.500Z,20.06
2024-05-09T19:50:11.040Z,20.00
2024-05-09T19:53:16.726Z,20.00
2024-05-09T19:56:19.291Z,19.94
2024-05-09T19:59:21.718Z,19.81
2024-05-09T20:02:24.332Z,19.81
2024-05-09T20:05:28.520Z,19.75
2024-05-09T20:08:31.108Z,19.63
2024-05-09T20:11:33.574Z,19.63
2024-05-09T20:14:36.022Z,19.63
2024-05-09T20:17:39.015Z,19.63
2024-05-09T20:20:43.768Z,19.56
2024-05-09T20:23:47.659Z,19.50
2024-05-09T20:26:49.991Z,19.56
2024-05-09T20:29:52.400Z,19.38
2024-05-09T20:32:55.221Z,19.38
2024-05-09T20:36:01.638Z,19.38
2024-05-09T20:39:04.697Z,19.81
2024-05-09T20:42:07.118Z,20.00
2024-05-09T20:45:09.486Z,20.06
2024-05-09T20:48:12.061Z,20.13
2024-05-09T20:51:14.558Z,20.13
2024-05-09T20:54:17.065Z,20.19
2024-05-09T20:57:19.544Z,20.19
2024-05-09T21:00:29.746Z,20.19
2024-05-09T21:03:38.422Z,20.25
2024-05-09T21:06:41.025Z,20.25
2024-05-09T21:09:43.650Z,20.25
2024-05-09T21:12:46.072Z,20.25
2024-05-09T21:15:48.643Z,20.25
2024-05-09T21:18:51.775Z,20.25
2024-05-09T21:21:54.288Z,20.31
2024-05-09T21:24:56.703Z,20.25
2024-05-09T21:27:59.261Z,20.25
2024-05-09T21:31:01.787Z,20.25
2024-05-09T21:34:04.379Z,20.25
2024-05-09T21:37:06.870Z,20.25
2024-05-09T21:40:13.847Z,20.31
2024-05-09T21:43:23.008Z,20.31
2024-05-09T21:46:25.688Z,20.31
2024-05-09T21:49:28.393Z,20.25
2024-05-09T21:52:31.161Z,20.25
2024-05-09T21:55:33.935Z,20.25
2024-05-09T21:58:36.349Z,20.25
2024-05-09T22:01:40.031Z,20.25
2024-05-09T22:04:42.458Z,20.25
2024-05-09T22:07:44.883Z,20.25
2024-05-09T22:10:47.303Z,20.25
2024-05-09T22:13:49.777Z,20.25
2024-05-09T22:16:52.637Z,20.25
2024-05-09T22:19:55.090Z,20.25
2024-05-09T22:22:57.460Z,20.25
2024-05-09T22:25:59.784Z,20.25
2024-05-09T22:29:02.159Z,20.25
2024-05-09T22:32:05.518Z,20.25
2024-05-09T22:35:10.564Z,20.19
2024-05-09T22:38:13.136Z,20.19
2024-05-09T22:41:15.625Z,20.19
2024-05-09T22:44:18.025Z,20.19
2024-05-09T22:47:20.474Z,20.13
2024-05-09T22:50:26.955Z,20.13
2024-05-09T22:53:33.301Z,20.13
2024-05-09T22:56:35.760Z,20.13
2024-05-09T22:59:38.178Z,20.13
2024-05-09T23:02:41.862Z,20.13
2024-05-09T23:05:44.452Z,20.13
2024-05-09T23:08:46.907Z,20.06
2024-05-09T23:11:49.310Z,20.13
2024-05-09T23:14:51.698Z,20.06
2024-05-09T23:17:54.263Z,20.13
2024-05-09T23:20:56.620Z,20.06
2024-05-09T23:23:58.929Z,20.06
2024-05-09T23:27:01.483Z,20.06
2024-05-09T23:30:06.081Z,20.06
2024-05-09T23:33:14.774Z,20.06
2024-05-09T23:36:17.406Z,20.06
2024-05-09T23:39:19.814Z,20.06
2024-05-09T23:42:22.143Z,20.06
2024-05-09T23:45:24.547Z,20.06
2024-05-09T23:48:26.933Z,20.06
2024-05-09T23:51:29.356Z,20.06
2024-05-09T23:54:31.783Z,20.00
2024-05-09T23:57:34.212Z,20.06
